aviador You're here:

KCKV Decoded Metar

CLARKSVILLE in TN, USA
Report Time2018-01-16 18:52:00
UTC Time2018-01-16 19:33:12
Flight Rules vfr VFR
Wind330° at 08 kt
W.Decomp.*RWY 35: 7.6 kt HW 2.6 kt LCW
RWY 05: 1.5 kt HW 7.9 kt LCW
W.Rank330° ranks 14
Current wind is below 330° avg. (8.6)
Visibility9999 m
Phenomena:N/A
Clouds:N/A
Expected CloudBase > 2,400 ft AGL from Temp-Dew spread
CeilingNone
Temp-12°C (ISA -26)
Dew Point-18°C (61% RH)
AAT-18.4°C
QNH1036 hPa
Density Alt-3,474 ft
Elevation541 ft
Report Wrong Elevation
Raw Report
KCKV 161852Z AUTO 33008KT 10SM CLR M12/M18 A3060 RMK AO2 SLP371
T11171183=

Extra information for KCKV:More info

Metar Taf Metar & Taf Last 4 Metars F.Rules Stats Wind Profile Meteogram Temp Stats Airport Information Weather charts Add Link Nearby VenuesMetar ALERT Operation Metar Decoded Social comments

AIRNAV info for KCKV